sensor_id;sensor_type;location;lat;lon;timestamp;pressure;altitude;pressure_sealevel;temperature
8227;BMP180;4154;48.810;9.012;2023-07-30T00:01:49;96726.00;;;18.10
8227;BMP180;4154;48.810;9.012;2023-07-30T00:04:15;96718.00;;;18.10
8227;BMP180;4154;48.810;9.012;2023-07-30T00:06:41;96709.00;;;18.10
8227;BMP180;4154;48.810;9.012;2023-07-30T00:09:07;96698.00;;;18.10
8227;BMP180;4154;48.810;9.012;2023-07-30T00:11:33;96700.00;;;18.10
8227;BMP180;4154;48.810;9.012;2023-07-30T00:14:00;96700.00;;;18.00
8227;BMP180;4154;48.810;9.012;2023-07-30T00:16:26;96701.00;;;18.00
8227;BMP180;4154;48.810;9.012;2023-07-30T00:18:52;96719.00;;;18.00
8227;BMP180;4154;48.810;9.012;2023-07-30T00:21:18;96716.00;;;18.00
8227;BMP180;4154;48.810;9.012;2023-07-30T00:23:44;96728.00;;;18.00
8227;BMP180;4154;48.810;9.012;2023-07-30T00:26:10;96735.00;;;17.90
8227;BMP180;4154;48.810;9.012;2023-07-30T00:28:36;96731.00;;;17.90
8227;BMP180;4154;48.810;9.012;2023-07-30T00:31:03;96746.00;;;17.90
8227;BMP180;4154;48.810;9.012;2023-07-30T00:33:29;96728.00;;;17.80
8227;BMP180;4154;48.810;9.012;2023-07-30T00:35:55;96723.00;;;17.90
8227;BMP180;4154;48.810;9.012;2023-07-30T00:38:21;96727.00;;;17.80
8227;BMP180;4154;48.810;9.012;2023-07-30T00:40:47;96727.00;;;17.80
8227;BMP180;4154;48.810;9.012;2023-07-30T00:43:13;96718.00;;;17.80
8227;BMP180;4154;48.810;9.012;2023-07-30T00:45:41;96724.00;;;17.80
8227;BMP180;4154;48.810;9.012;2023-07-30T00:48:09;96727.00;;;17.80
8227;BMP180;4154;48.810;9.012;2023-07-30T00:50:35;96734.00;;;17.80
8227;BMP180;4154;48.810;9.012;2023-07-30T00:53:01;96735.00;;;17.70
8227;BMP180;4154;48.810;9.012;2023-07-30T00:55:27;96746.00;;;17.70
8227;BMP180;4154;48.810;9.012;2023-07-30T00:57:53;96730.00;;;17.70
8227;BMP180;4154;48.810;9.012;2023-07-30T01:00:20;96746.00;;;17.70
8227;BMP180;4154;48.810;9.012;2023-07-30T01:02:46;96747.00;;;17.60
8227;BMP180;4154;48.810;9.012;2023-07-30T01:05:12;96745.00;;;17.60
8227;BMP180;4154;48.810;9.012;2023-07-30T01:07:38;96745.00;;;17.60
8227;BMP180;4154;48.810;9.012;2023-07-30T01:10:04;96742.00;;;17.60
8227;BMP180;4154;48.810;9.012;2023-07-30T01:12:30;96750.00;;;17.60
8227;BMP180;4154;48.810;9.012;2023-07-30T01:14:58;96753.00;;;17.60
8227;BMP180;4154;48.810;9.012;2023-07-30T01:17:24;96753.00;;;17.60
8227;BMP180;4154;48.810;9.012;2023-07-30T01:19:53;96743.00;;;17.70
8227;BMP180;4154;48.810;9.012;2023-07-30T01:22:21;96747.00;;;17.70
8227;BMP180;4154;48.810;9.012;2023-07-30T01:24:48;96742.00;;;17.70
8227;BMP180;4154;48.810;9.012;2023-07-30T01:27:33;96756.00;;;17.70
8227;BMP180;4154;48.810;9.012;2023-07-30T01:30:29;96748.00;;;17.60
8227;BMP180;4154;48.810;9.012;2023-07-30T01:32:56;96766.00;;;17.60
8227;BMP180;4154;48.810;9.012;2023-07-30T01:35:27;96756.00;;;17.60
8227;BMP180;4154;48.810;9.012;2023-07-30T01:37:54;96765.00;;;17.60
8227;BMP180;4154;48.810;9.012;2023-07-30T01:40:21;96757.00;;;17.60
8227;BMP180;4154;48.810;9.012;2023-07-30T01:42:49;96758.00;;;17.60
8227;BMP180;4154;48.810;9.012;2023-07-30T01:45:15;96764.00;;;17.60
8227;BMP180;4154;48.810;9.012;2023-07-30T01:47:41;96752.00;;;17.60
8227;BMP180;4154;48.810;9.012;2023-07-30T01:50:08;96767.00;;;17.60
8227;BMP180;4154;48.810;9.012;2023-07-30T01:52:34;96762.00;;;17.60
8227;BMP180;4154;48.810;9.012;2023-07-30T01:55:00;96765.00;;;17.60
8227;BMP180;4154;48.810;9.012;2023-07-30T01:57:27;96759.00;;;17.60
8227;BMP180;4154;48.810;9.012;2023-07-30T01:59:53;96755.00;;;17.60
8227;BMP180;4154;48.810;9.012;2023-07-30T02:02:19;96759.00;;;17.60
8227;BMP180;4154;48.810;9.012;2023-07-30T02:04:45;96754.00;;;17.60
8227;BMP180;4154;48.810;9.012;2023-07-30T02:07:11;96753.00;;;17.60
8227;BMP180;4154;48.810;9.012;2023-07-30T02:09:37;96754.00;;;17.60
8227;BMP180;4154;48.810;9.012;2023-07-30T02:12:03;96747.00;;;17.60
8227;BMP180;4154;48.810;9.012;2023-07-30T02:14:29;96751.00;;;17.60
8227;BMP180;4154;48.810;9.012;2023-07-30T02:16:55;96750.00;;;17.60
8227;BMP180;4154;48.810;9.012;2023-07-30T02:19:22;96743.00;;;17.60
8227;BMP180;4154;48.810;9.012;2023-07-30T02:21:48;96751.00;;;17.50
8227;BMP180;4154;48.810;9.012;2023-07-30T02:24:14;96745.00;;;17.50
8227;BMP180;4154;48.810;9.012;2023-07-30T02:26:40;96763.00;;;17.60
8227;BMP180;4154;48.810;9.012;2023-07-30T02:29:06;96758.00;;;17.50
8227;BMP180;4154;48.810;9.012;2023-07-30T02:31:33;96759.00;;;17.50
8227;BMP180;4154;48.810;9.012;2023-07-30T02:33:59;96766.00;;;17.50
8227;BMP180;4154;48.810;9.012;2023-07-30T02:36:25;96758.00;;;17.50
8227;BMP180;4154;48.810;9.012;2023-07-30T02:38:51;96758.00;;;17.50
8227;BMP180;4154;48.810;9.012;2023-07-30T02:41:17;96767.00;;;17.40
8227;BMP180;4154;48.810;9.012;2023-07-30T02:43:44;96759.00;;;17.40
8227;BMP180;4154;48.810;9.012;2023-07-30T02:46:10;96767.00;;;17.50
8227;BMP180;4154;48.810;9.012;2023-07-30T02:48:36;96757.00;;;17.40
8227;BMP180;4154;48.810;9.012;2023-07-30T02:51:02;96760.00;;;17.40
8227;BMP180;4154;48.810;9.012;2023-07-30T02:53:28;96761.00;;;17.40
8227;BMP180;4154;48.810;9.012;2023-07-30T02:55:55;96763.00;;;17.40
8227;BMP180;4154;48.810;9.012;2023-07-30T02:58:21;96765.00;;;17.30
8227;BMP180;4154;48.810;9.012;2023-07-30T03:00:47;96762.00;;;17.30
8227;BMP180;4154;48.810;9.012;2023-07-30T03:03:13;96765.00;;;17.30
8227;BMP180;4154;48.810;9.012;2023-07-30T03:05:42;96771.00;;;17.30
8227;BMP180;4154;48.810;9.012;2023-07-30T03:08:09;96775.00;;;17.30
8227;BMP180;4154;48.810;9.012;2023-07-30T03:10:36;96766.00;;;17.30
8227;BMP180;4154;48.810;9.012;2023-07-30T03:13:02;96769.00;;;17.30
8227;BMP180;4154;48.810;9.012;2023-07-30T03:15:29;96761.00;;;17.30
8227;BMP180;4154;48.810;9.012;2023-07-30T03:17:55;96780.00;;;17.30
8227;BMP180;4154;48.810;9.012;2023-07-30T03:20:21;96767.00;;;17.40
8227;BMP180;4154;48.810;9.012;2023-07-30T03:22:47;96769.00;;;17.40
8227;BMP180;4154;48.810;9.012;2023-07-30T03:25:13;96775.00;;;17.40
8227;BMP180;4154;48.810;9.012;2023-07-30T03:27:40;96764.00;;;17.40
8227;BMP180;4154;48.810;9.012;2023-07-30T03:30:06;96766.00;;;17.40
8227;BMP180;4154;48.810;9.012;2023-07-30T03:32:32;96772.00;;;17.40
8227;BMP180;4154;48.810;9.012;2023-07-30T03:34:58;96774.00;;;17.40
8227;BMP180;4154;48.810;9.012;2023-07-30T03:37:24;96780.00;;;17.40
8227;BMP180;4154;48.810;9.012;2023-07-30T03:39:50;96779.00;;;17.40
8227;BMP180;4154;48.810;9.012;2023-07-30T03:42:16;96777.00;;;17.40
8227;BMP180;4154;48.810;9.012;2023-07-30T03:44:43;96779.00;;;17.40
8227;BMP180;4154;48.810;9.012;2023-07-30T03:47:09;96786.00;;;17.40
8227;BMP180;4154;48.810;9.012;2023-07-30T03:49:35;96792.00;;;17.40
8227;BMP180;4154;48.810;9.012;2023-07-30T03:52:01;96785.00;;;17.40
8227;BMP180;4154;48.810;9.012;2023-07-30T03:54:27;96794.00;;;17.40
8227;BMP180;4154;48.810;9.012;2023-07-30T03:56:53;96794.00;;;17.50
8227;BMP180;4154;48.810;9.012;2023-07-30T03:59:19;96800.00;;;17.50
8227;BMP180;4154;48.810;9.012;2023-07-30T04:01:45;96795.00;;;17.40
8227;BMP180;4154;48.810;9.012;2023-07-30T04:04:11;96786.00;;;17.50
8227;BMP180;4154;48.810;9.012;2023-07-30T04:06:37;96796.00;;;17.50
8227;BMP180;4154;48.810;9.012;2023-07-30T04:09:04;96796.00;;;17.50
8227;BMP180;4154;48.810;9.012;2023-07-30T04:11:30;96797.00;;;17.50
8227;BMP180;4154;48.810;9.012;2023-07-30T04:13:56;96799.00;;;17.50
8227;BMP180;4154;48.810;9.012;2023-07-30T04:16:22;96792.00;;;17.50
8227;BMP180;4154;48.810;9.012;2023-07-30T04:18:48;96804.00;;;17.50
8227;BMP180;4154;48.810;9.012;2023-07-30T04:21:15;96800.00;;;17.50
8227;BMP180;4154;48.810;9.012;2023-07-30T04:23:43;96802.00;;;17.50
8227;BMP180;4154;48.810;9.012;2023-07-30T04:26:09;96807.00;;;17.50
8227;BMP180;4154;48.810;9.012;2023-07-30T04:28:36;96816.00;;;17.50
8227;BMP180;4154;48.810;9.012;2023-07-30T04:31:06;96820.00;;;17.50
8227;BMP180;4154;48.810;9.012;2023-07-30T04:33:32;96835.00;;;17.50
8227;BMP180;4154;48.810;9.012;2023-07-30T04:35:59;96827.00;;;17.50
8227;BMP180;4154;48.810;9.012;2023-07-30T04:38:25;96825.00;;;17.50
8227;BMP180;4154;48.810;9.012;2023-07-30T04:40:52;96833.00;;;17.50
8227;BMP180;4154;48.810;9.012;2023-07-30T04:43:18;96832.00;;;17.50
8227;BMP180;4154;48.810;9.012;2023-07-30T04:45:44;96825.00;;;17.50
8227;BMP180;4154;48.810;9.012;2023-07-30T04:48:11;96831.00;;;17.50
8227;BMP180;4154;48.810;9.012;2023-07-30T04:50:38;96845.00;;;17.50
8227;BMP180;4154;48.810;9.012;2023-07-30T04:53:06;96831.00;;;17.50
8227;BMP180;4154;48.810;9.012;2023-07-30T04:55:32;96829.00;;;17.50
8227;BMP180;4154;48.810;9.012;2023-07-30T04:57:58;96835.00;;;17.60
8227;BMP180;4154;48.810;9.012;2023-07-30T05:00:24;96841.00;;;17.50
8227;BMP180;4154;48.810;9.012;2023-07-30T05:02:50;96840.00;;;17.60
8227;BMP180;4154;48.810;9.012;2023-07-30T05:05:17;96847.00;;;17.60
8227;BMP180;4154;48.810;9.012;2023-07-30T05:07:43;96847.00;;;17.60
8227;BMP180;4154;48.810;9.012;2023-07-30T05:10:09;96847.00;;;17.60
8227;BMP180;4154;48.810;9.012;2023-07-30T05:12:36;96856.00;;;17.60
8227;BMP180;4154;48.810;9.012;2023-07-30T05:15:03;96859.00;;;17.60
8227;BMP180;4154;48.810;9.012;2023-07-30T05:17:29;96870.00;;;17.60
8227;BMP180;4154;48.810;9.012;2023-07-30T05:19:56;96855.00;;;17.60
8227;BMP180;4154;48.810;9.012;2023-07-30T05:22:22;96855.00;;;17.60
8227;BMP180;4154;48.810;9.012;2023-07-30T05:24:48;96859.00;;;17.50
8227;BMP180;4154;48.810;9.012;2023-07-30T05:27:14;96850.00;;;17.40
8227;BMP180;4154;48.810;9.012;2023-07-30T05:29:40;96838.00;;;17.40
8227;BMP180;4154;48.810;9.012;2023-07-30T05:32:06;96845.00;;;17.40
8227;BMP180;4154;48.810;9.012;2023-07-30T05:34:33;96850.00;;;17.50
8227;BMP180;4154;48.810;9.012;2023-07-30T05:36:59;96856.00;;;17.50
8227;BMP180;4154;48.810;9.012;2023-07-30T05:39:43;96853.00;;;17.50
8227;BMP180;4154;48.810;9.012;2023-07-30T05:42:09;96844.00;;;17.50
8227;BMP180;4154;48.810;9.012;2023-07-30T05:44:38;96848.00;;;17.50
8227;BMP180;4154;48.810;9.012;2023-07-30T05:47:04;96843.00;;;17.60
8227;BMP180;4154;48.810;9.012;2023-07-30T05:49:30;96844.00;;;17.50
8227;BMP180;4154;48.810;9.012;2023-07-30T05:51:56;96853.00;;;17.60
8227;BMP180;4154;48.810;9.012;2023-07-30T05:54:25;96849.00;;;17.60
8227;BMP180;4154;48.810;9.012;2023-07-30T05:56:51;96850.00;;;17.60
8227;BMP180;4154;48.810;9.012;2023-07-30T05:59:17;96840.00;;;17.60
8227;BMP180;4154;48.810;9.012;2023-07-30T06:01:44;96848.00;;;17.60
8227;BMP180;4154;48.810;9.012;2023-07-30T06:04:12;96845.00;;;17.70
8227;BMP180;4154;48.810;9.012;2023-07-30T06:06:38;96852.00;;;17.70
8227;BMP180;4154;48.810;9.012;2023-07-30T06:09:04;96855.00;;;17.80
8227;BMP180;4154;48.810;9.012;2023-07-30T06:11:30;96849.00;;;17.80
8227;BMP180;4154;48.810;9.012;2023-07-30T06:13:57;96848.00;;;17.80
8227;BMP180;4154;48.810;9.012;2023-07-30T06:16:23;96854.00;;;17.80
8227;BMP180;4154;48.810;9.012;2023-07-30T06:18:49;96856.00;;;17.90
8227;BMP180;4154;48.810;9.012;2023-07-30T06:21:15;96834.00;;;17.90
8227;BMP180;4154;48.810;9.012;2023-07-30T06:23:41;96834.00;;;17.90
8227;BMP180;4154;48.810;9.012;2023-07-30T06:26:07;96830.00;;;17.90
8227;BMP180;4154;48.810;9.012;2023-07-30T06:28:34;96839.00;;;18.00
8227;BMP180;4154;48.810;9.012;2023-07-30T06:31:02;96844.00;;;18.00
8227;BMP180;4154;48.810;9.012;2023-07-30T06:33:28;96855.00;;;18.00
8227;BMP180;4154;48.810;9.012;2023-07-30T06:35:54;96865.00;;;18.10
8227;BMP180;4154;48.810;9.012;2023-07-30T06:38:20;96872.00;;;18.10
8227;BMP180;4154;48.810;9.012;2023-07-30T06:40:47;96865.00;;;18.20
8227;BMP180;4154;48.810;9.012;2023-07-30T06:43:13;96865.00;;;18.30
8227;BMP180;4154;48.810;9.012;2023-07-30T06:45:39;96868.00;;;18.30
8227;BMP180;4154;48.810;9.012;2023-07-30T06:48:08;96881.00;;;18.40
8227;BMP180;4154;48.810;9.012;2023-07-30T06:50:34;96877.00;;;18.40
8227;BMP180;4154;48.810;9.012;2023-07-30T06:53:03;96887.00;;;18.40
8227;BMP180;4154;48.810;9.012;2023-07-30T06:55:29;96885.00;;;18.50
8227;BMP180;4154;48.810;9.012;2023-07-30T06:58:04;96880.00;;;18.50
8227;BMP180;4154;48.810;9.012;2023-07-30T07:00:31;96885.00;;;18.50
8227;BMP180;4154;48.810;9.012;2023-07-30T07:02:57;96892.00;;;18.50
8227;BMP180;4154;48.810;9.012;2023-07-30T07:05:26;96891.00;;;18.50
8227;BMP180;4154;48.810;9.012;2023-07-30T07:07:59;96889.00;;;18.50
8227;BMP180;4154;48.810;9.012;2023-07-30T07:10:29;96891.00;;;18.50
8227;BMP180;4154;48.810;9.012;2023-07-30T07:12:55;96894.00;;;18.50
8227;BMP180;4154;48.810;9.012;2023-07-30T07:15:21;96905.00;;;18.50
8227;BMP180;4154;48.810;9.012;2023-07-30T07:17:57;96920.00;;;18.50
8227;BMP180;4154;48.810;9.012;2023-07-30T07:20:23;96923.00;;;18.40
8227;BMP180;4154;48.810;9.012;2023-07-30T07:22:53;96937.00;;;18.50
8227;BMP180;4154;48.810;9.012;2023-07-30T07:25:19;96934.00;;;18.50
8227;BMP180;4154;48.810;9.012;2023-07-30T07:27:46;96928.00;;;18.50
8227;BMP180;4154;48.810;9.012;2023-07-30T07:30:13;96927.00;;;18.50
8227;BMP180;4154;48.810;9.012;2023-07-30T07:32:39;96922.00;;;18.40
8227;BMP180;4154;48.810;9.012;2023-07-30T07:39:18;96921.00;;;18.40
8227;BMP180;4154;48.810;9.012;2023-07-30T07:41:57;96921.00;;;18.40
8227;BMP180;4154;48.810;9.012;2023-07-30T07:44:35;96922.00;;;18.30
8227;BMP180;4154;48.810;9.012;2023-07-30T07:47:01;96924.00;;;18.30
8227;BMP180;4154;48.810;9.012;2023-07-30T07:49:27;96930.00;;;18.30
8227;BMP180;4154;48.810;9.012;2023-07-30T07:51:54;96919.00;;;18.30
8227;BMP180;4154;48.810;9.012;2023-07-30T07:54:20;96923.00;;;18.30
8227;BMP180;4154;48.810;9.012;2023-07-30T07:56:46;96921.00;;;18.30
8227;BMP180;4154;48.810;9.012;2023-07-30T07:59:12;96920.00;;;18.30
8227;BMP180;4154;48.810;9.012;2023-07-30T08:01:38;96921.00;;;18.20
8227;BMP180;4154;48.810;9.012;2023-07-30T08:04:05;96926.00;;;18.30
8227;BMP180;4154;48.810;9.012;2023-07-30T08:06:32;96927.00;;;18.30
8227;BMP180;4154;48.810;9.012;2023-07-30T08:08:58;96933.00;;;18.30
8227;BMP180;4154;48.810;9.012;2023-07-30T08:11:24;96943.00;;;18.20
8227;BMP180;4154;48.810;9.012;2023-07-30T08:13:50;96936.00;;;18.20
8227;BMP180;4154;48.810;9.012;2023-07-30T08:16:17;96937.00;;;18.30
8227;BMP180;4154;48.810;9.012;2023-07-30T08:18:43;96929.00;;;18.30
8227;BMP180;4154;48.810;9.012;2023-07-30T08:21:09;96923.00;;;18.40
8227;BMP180;4154;48.810;9.012;2023-07-30T08:23:35;96920.00;;;18.40
8227;BMP180;4154;48.810;9.012;2023-07-30T08:26:04;96927.00;;;18.40
8227;BMP180;4154;48.810;9.012;2023-07-30T08:28:30;96926.00;;;18.50
8227;BMP180;4154;48.810;9.012;2023-07-30T08:31:02;96922.00;;;18.50
8227;BMP180;4154;48.810;9.012;2023-07-30T08:33:29;96920.00;;;18.50
8227;BMP180;4154;48.810;9.012;2023-07-30T08:35:58;96916.00;;;18.50
8227;BMP180;4154;48.810;9.012;2023-07-30T08:38:25;96915.00;;;18.50
8227;BMP180;4154;48.810;9.012;2023-07-30T08:40:51;96917.00;;;18.50
8227;BMP180;4154;48.810;9.012;2023-07-30T08:43:18;96924.00;;;18.50
8227;BMP180;4154;48.810;9.012;2023-07-30T08:45:45;96922.00;;;18.60
8227;BMP180;4154;48.810;9.012;2023-07-30T08:48:11;96926.00;;;18.60
8227;BMP180;4154;48.810;9.012;2023-07-30T08:50:37;96939.00;;;18.60
8227;BMP180;4154;48.810;9.012;2023-07-30T08:53:03;96932.00;;;18.60
8227;BMP180;4154;48.810;9.012;2023-07-30T08:55:34;96924.00;;;18.70
8227;BMP180;4154;48.810;9.012;2023-07-30T08:58:04;96929.00;;;18.60
8227;BMP180;4154;48.810;9.012;2023-07-30T09:00:34;96934.00;;;18.70
8227;BMP180;4154;48.810;9.012;2023-07-30T09:03:04;96933.00;;;18.60
8227;BMP180;4154;48.810;9.012;2023-07-30T09:05:31;96930.00;;;18.50
8227;BMP180;4154;48.810;9.012;2023-07-30T09:07:57;96942.00;;;18.50
8227;BMP180;4154;48.810;9.012;2023-07-30T09:10:25;96944.00;;;18.50
8227;BMP180;4154;48.810;9.012;2023-07-30T09:12:56;96933.00;;;18.30
8227;BMP180;4154;48.810;9.012;2023-07-30T09:15:34;96939.00;;;18.30
8227;BMP180;4154;48.810;9.012;2023-07-30T09:18:01;96942.00;;;18.40
8227;BMP180;4154;48.810;9.012;2023-07-30T09:20:27;96939.00;;;18.30
8227;BMP180;4154;48.810;9.012;2023-07-30T09:22:56;96941.00;;;18.30
8227;BMP180;4154;48.810;9.012;2023-07-30T09:25:22;96950.00;;;18.40
8227;BMP180;4154;48.810;9.012;2023-07-30T09:27:51;96943.00;;;18.30
8227;BMP180;4154;48.810;9.012;2023-07-30T09:30:26;96943.00;;;18.30
8227;BMP180;4154;48.810;9.012;2023-07-30T09:32:55;96962.00;;;18.30
8227;BMP180;4154;48.810;9.012;2023-07-30T09:35:22;96966.00;;;18.30
8227;BMP180;4154;48.810;9.012;2023-07-30T09:37:57;96961.00;;;18.40
8227;BMP180;4154;48.810;9.012;2023-07-30T09:40:35;96967.00;;;18.40
8227;BMP180;4154;48.810;9.012;2023-07-30T09:43:03;96964.00;;;18.40
8227;BMP180;4154;48.810;9.012;2023-07-30T09:45:34;96972.00;;;18.40
8227;BMP180;4154;48.810;9.012;2023-07-30T09:48:05;96973.00;;;18.50
8227;BMP180;4154;48.810;9.012;2023-07-30T09:50:33;96960.00;;;18.60
8227;BMP180;4154;48.810;9.012;2023-07-30T09:53:01;96964.00;;;18.50
8227;BMP180;4154;48.810;9.012;2023-07-30T09:55:27;96963.00;;;18.60
8227;BMP180;4154;48.810;9.012;2023-07-30T09:57:54;96986.00;;;18.60
8227;BMP180;4154;48.810;9.012;2023-07-30T10:00:20;96971.00;;;18.70
8227;BMP180;4154;48.810;9.012;2023-07-30T10:02:47;96965.00;;;18.70
8227;BMP180;4154;48.810;9.012;2023-07-30T10:05:19;96966.00;;;18.70
8227;BMP180;4154;48.810;9.012;2023-07-30T10:08:04;96963.00;;;18.80
8227;BMP180;4154;48.810;9.012;2023-07-30T10:10:31;96969.00;;;18.70
8227;BMP180;4154;48.810;9.012;2023-07-30T10:13:05;96972.00;;;18.80
8227;BMP180;4154;48.810;9.012;2023-07-30T10:15:35;96988.00;;;18.80
8227;BMP180;4154;48.810;9.012;2023-07-30T10:18:01;96980.00;;;18.90
8227;BMP180;4154;48.810;9.012;2023-07-30T10:20:28;96980.00;;;18.90
8227;BMP180;4154;48.810;9.012;2023-07-30T10:22:59;96971.00;;;19.00
8227;BMP180;4154;48.810;9.012;2023-07-30T10:25:50;96975.00;;;19.10
8227;BMP180;4154;48.810;9.012;2023-07-30T10:30:58;96977.00;;;19.20
8227;BMP180;4154;48.810;9.012;2023-07-30T10:33:49;96965.00;;;19.30
8227;BMP180;4154;48.810;9.012;2023-07-30T10:36:33;96977.00;;;19.30
8227;BMP180;4154;48.810;9.012;2023-07-30T10:39:20;96971.00;;;19.30
8227;BMP180;4154;48.810;9.012;2023-07-30T10:41:54;96983.00;;;19.50
8227;BMP180;4154;48.810;9.012;2023-07-30T10:44:32;96981.00;;;19.60
8227;BMP180;4154;48.810;9.012;2023-07-30T10:47:01;96984.00;;;19.60
8227;BMP180;4154;48.810;9.012;2023-07-30T10:49:27;96983.00;;;19.60
8227;BMP180;4154;48.810;9.012;2023-07-30T10:51:55;96974.00;;;19.80
8227;BMP180;4154;48.810;9.012;2023-07-30T10:54:30;96984.00;;;19.90
8227;BMP180;4154;48.810;9.012;2023-07-30T10:56:58;96985.00;;;20.00
8227;BMP180;4154;48.810;9.012;2023-07-30T10:59:25;97019.00;;;19.90
8227;BMP180;4154;48.810;9.012;2023-07-30T11:01:52;96993.00;;;19.90
8227;BMP180;4154;48.810;9.012;2023-07-30T11:04:20;97006.00;;;19.70
8227;BMP180;4154;48.810;9.012;2023-07-30T11:06:49;97007.00;;;19.70
8227;BMP180;4154;48.810;9.012;2023-07-30T11:09:23;97003.00;;;19.70
8227;BMP180;4154;48.810;9.012;2023-07-30T11:11:50;97013.00;;;19.60
8227;BMP180;4154;48.810;9.012;2023-07-30T11:14:22;97014.00;;;19.50
8227;BMP180;4154;48.810;9.012;2023-07-30T11:16:57;97008.00;;;19.30
8227;BMP180;4154;48.810;9.012;2023-07-30T11:19:27;97024.00;;;19.20
8227;BMP180;4154;48.810;9.012;2023-07-30T11:21:56;97030.00;;;19.30
8227;BMP180;4154;48.810;9.012;2023-07-30T11:24:33;97031.00;;;19.40
8227;BMP180;4154;48.810;9.012;2023-07-30T11:27:00;97022.00;;;19.40
8227;BMP180;4154;48.810;9.012;2023-07-30T11:29:27;97032.00;;;19.40
8227;BMP180;4154;48.810;9.012;2023-07-30T11:31:57;97029.00;;;19.50
8227;BMP180;4154;48.810;9.012;2023-07-30T11:34:26;97017.00;;;19.60
8227;BMP180;4154;48.810;9.012;2023-07-30T11:36:53;97022.00;;;19.70
8227;BMP180;4154;48.810;9.012;2023-07-30T11:39:19;97032.00;;;19.80
8227;BMP180;4154;48.810;9.012;2023-07-30T11:41:45;97043.00;;;19.70
8227;BMP180;4154;48.810;9.012;2023-07-30T11:44:36;97030.00;;;19.80
8227;BMP180;4154;48.810;9.012;2023-07-30T11:47:06;97036.00;;;19.90
8227;BMP180;4154;48.810;9.012;2023-07-30T11:49:32;97047.00;;;20.00
8227;BMP180;4154;48.810;9.012;2023-07-30T11:52:09;97044.00;;;20.00
8227;BMP180;4154;48.810;9.012;2023-07-30T11:54:35;97040.00;;;20.00
8227;BMP180;4154;48.810;9.012;2023-07-30T11:57:01;97030.00;;;20.00
8227;BMP180;4154;48.810;9.012;2023-07-30T11:59:28;97037.00;;;20.00
8227;BMP180;4154;48.810;9.012;2023-07-30T12:01:54;97026.00;;;20.10
8227;BMP180;4154;48.810;9.012;2023-07-30T12:04:20;97044.00;;;20.10
8227;BMP180;4154;48.810;9.012;2023-07-30T12:06:48;97045.00;;;20.20
8227;BMP180;4154;48.810;9.012;2023-07-30T12:09:22;97041.00;;;20.20
8227;BMP180;4154;48.810;9.012;2023-07-30T12:11:57;97051.00;;;20.20
8227;BMP180;4154;48.810;9.012;2023-07-30T12:17:14;97042.00;;;20.40
8227;BMP180;4154;48.810;9.012;2023-07-30T12:19:41;97045.00;;;20.40
8227;BMP180;4154;48.810;9.012;2023-07-30T12:22:07;97036.00;;;20.40
8227;BMP180;4154;48.810;9.012;2023-07-30T12:24:33;97046.00;;;20.60
8227;BMP180;4154;48.810;9.012;2023-07-30T12:26:59;97041.00;;;20.60
8227;BMP180;4154;48.810;9.012;2023-07-30T12:29:26;97028.00;;;20.50
8227;BMP180;4154;48.810;9.012;2023-07-30T12:31:52;97051.00;;;20.50
8227;BMP180;4154;48.810;9.012;2023-07-30T12:34:19;97054.00;;;20.40
8227;BMP180;4154;48.810;9.012;2023-07-30T12:36:46;97048.00;;;20.50
8227;BMP180;4154;48.810;9.012;2023-07-30T12:39:12;97051.00;;;20.40
8227;BMP180;4154;48.810;9.012;2023-07-30T12:41:38;97045.00;;;20.40
8227;BMP180;4154;48.810;9.012;2023-07-30T12:44:04;97058.00;;;20.50
8227;BMP180;4154;48.810;9.012;2023-07-30T12:46:31;97049.00;;;20.70
8227;BMP180;4154;48.810;9.012;2023-07-30T12:48:58;97054.00;;;20.60
8227;BMP180;4154;48.810;9.012;2023-07-30T12:51:30;97061.00;;;20.60
8227;BMP180;4154;48.810;9.012;2023-07-30T12:53:56;97061.00;;;20.70
8227;BMP180;4154;48.810;9.012;2023-07-30T12:56:22;97054.00;;;20.80
8227;BMP180;4154;48.810;9.012;2023-07-30T12:58:48;97056.00;;;20.70
8227;BMP180;4154;48.810;9.012;2023-07-30T13:01:14;97073.00;;;20.70
8227;BMP180;4154;48.810;9.012;2023-07-30T13:03:41;97061.00;;;20.60
8227;BMP180;4154;48.810;9.012;2023-07-30T13:06:11;97071.00;;;20.60
8227;BMP180;4154;48.810;9.012;2023-07-30T13:08:39;97066.00;;;20.70
8227;BMP180;4154;48.810;9.012;2023-07-30T13:11:06;97074.00;;;20.70
8227;BMP180;4154;48.810;9.012;2023-07-30T13:13:32;97065.00;;;20.90
8227;BMP180;4154;48.810;9.012;2023-07-30T13:15:58;97074.00;;;21.00
8227;BMP180;4154;48.810;9.012;2023-07-30T13:18:27;97065.00;;;21.00
8227;BMP180;4154;48.810;9.012;2023-07-30T13:20:53;97076.00;;;21.10
8227;BMP180;4154;48.810;9.012;2023-07-30T13:23:19;97075.00;;;21.20
8227;BMP180;4154;48.810;9.012;2023-07-30T13:25:45;97074.00;;;21.10
8227;BMP180;4154;48.810;9.012;2023-07-30T13:28:11;97069.00;;;21.10
8227;BMP180;4154;48.810;9.012;2023-07-30T13:30:38;97076.00;;;21.20
8227;BMP180;4154;48.810;9.012;2023-07-30T13:33:04;97083.00;;;21.20
8227;BMP180;4154;48.810;9.012;2023-07-30T13:35:30;97077.00;;;21.30
8227;BMP180;4154;48.810;9.012;2023-07-30T13:37:56;97079.00;;;21.20
8227;BMP180;4154;48.810;9.012;2023-07-30T13:40:22;97077.00;;;21.20
8227;BMP180;4154;48.810;9.012;2023-07-30T13:42:48;97066.00;;;21.20
8227;BMP180;4154;48.810;9.012;2023-07-30T13:45:14;97080.00;;;21.20
8227;BMP180;4154;48.810;9.012;2023-07-30T13:47:41;97084.00;;;21.00
8227;BMP180;4154;48.810;9.012;2023-07-30T13:50:07;97081.00;;;21.00
8227;BMP180;4154;48.810;9.012;2023-07-30T13:52:33;97093.00;;;20.80
8227;BMP180;4154;48.810;9.012;2023-07-30T13:54:59;97090.00;;;20.80
8227;BMP180;4154;48.810;9.012;2023-07-30T13:57:26;97095.00;;;20.90
8227;BMP180;4154;48.810;9.012;2023-07-30T13:59:54;97102.00;;;21.00
8227;BMP180;4154;48.810;9.012;2023-07-30T14:02:20;97111.00;;;21.10
8227;BMP180;4154;48.810;9.012;2023-07-30T14:04:46;97103.00;;;21.20
8227;BMP180;4154;48.810;9.012;2023-07-30T14:07:13;97120.00;;;21.20
8227;BMP180;4154;48.810;9.012;2023-07-30T14:09:39;97099.00;;;21.30
8227;BMP180;4154;48.810;9.012;2023-07-30T14:12:05;97106.00;;;21.40
8227;BMP180;4154;48.810;9.012;2023-07-30T14:14:32;97104.00;;;21.40
8227;BMP180;4154;48.810;9.012;2023-07-30T14:16:58;97116.00;;;21.40
8227;BMP180;4154;48.810;9.012;2023-07-30T14:19:24;97112.00;;;21.40
8227;BMP180;4154;48.810;9.012;2023-07-30T14:21:50;97103.00;;;21.30
8227;BMP180;4154;48.810;9.012;2023-07-30T14:24:16;97109.00;;;21.20
8227;BMP180;4154;48.810;9.012;2023-07-30T14:26:43;97124.00;;;21.20
8227;BMP180;4154;48.810;9.012;2023-07-30T14:29:09;97115.00;;;21.30
8227;BMP180;4154;48.810;9.012;2023-07-30T14:31:35;97120.00;;;21.40
8227;BMP180;4154;48.810;9.012;2023-07-30T14:34:01;97121.00;;;21.40
8227;BMP180;4154;48.810;9.012;2023-07-30T14:36:27;97125.00;;;21.40
8227;BMP180;4154;48.810;9.012;2023-07-30T14:38:53;97128.00;;;21.20
8227;BMP180;4154;48.810;9.012;2023-07-30T14:41:19;97140.00;;;21.20
8227;BMP180;4154;48.810;9.012;2023-07-30T14:43:45;97132.00;;;21.00
8227;BMP180;4154;48.810;9.012;2023-07-30T14:46:11;97134.00;;;21.00